createdAt,value
2019-03-23T00:01:49.436Z,76.01
2019-03-23T00:04:22.267Z,76.96
2019-03-23T00:06:54.426Z,77.53
2019-03-23T00:09:26.533Z,75.86
2019-03-23T00:11:58.883Z,75.97
2019-03-23T00:14:30.728Z,77.09
2019-03-23T00:17:02.903Z,77.82
2019-03-23T00:19:35.232Z,77.46
2019-03-23T00:22:07.501Z,76.12
2019-03-23T00:24:39.717Z,75.15
2019-03-23T00:27:11.720Z,75.12
2019-03-23T00:29:43.899Z,75.57
2019-03-23T00:32:15.788Z,75.70
2019-03-23T00:34:49.877Z,76.05
2019-03-23T00:37:21.895Z,75.75
2019-03-23T00:39:53.761Z,76.48
2019-03-23T00:42:27.117Z,77.44
2019-03-23T00:44:58.958Z,78.58
2019-03-23T00:47:31.073Z,79.17
2019-03-23T00:50:03.575Z,79.94
2019-03-23T00:52:35.686Z,80.20
2019-03-23T00:55:07.829Z,79.35
2019-03-23T00:57:39.971Z,78.75
2019-03-23T01:00:12.583Z,79.12
2019-03-23T01:02:44.852Z,79.56
2019-03-23T01:05:17.117Z,79.00
2019-03-23T01:07:49.449Z,78.25
2019-03-23T01:10:21.460Z,77.62
2019-03-23T01:12:53.720Z,76.48
2019-03-23T01:15:25.787Z,76.23
2019-03-23T01:17:57.966Z,75.38
2019-03-23T01:20:30.013Z,74.88
2019-03-23T01:23:02.406Z,74.56
2019-03-23T01:25:34.475Z,75.00
2019-03-23T01:28:06.701Z,75.27
2019-03-23T01:30:38.634Z,75.08
2019-03-23T01:33:10.722Z,74.90
2019-03-23T01:35:42.843Z,74.64
2019-03-23T01:38:14.960Z,73.83
2019-03-23T01:40:46.974Z,74.53
2019-03-23T01:43:19.104Z,75.59
2019-03-23T01:45:51.437Z,74.75
2019-03-23T01:48:23.394Z,75.04
2019-03-23T01:50:55.606Z,76.36
2019-03-23T01:53:27.586Z,78.50
2019-03-23T01:56:00.047Z,78.95
2019-03-23T01:58:33.423Z,78.59
2019-03-23T02:01:05.603Z,78.42
2019-03-23T02:03:37.666Z,77.68
2019-03-23T02:06:09.859Z,76.60
2019-03-23T02:08:42.114Z,76.64
2019-03-23T02:11:15.699Z,77.05
2019-03-23T02:13:47.838Z,76.10
2019-03-23T02:16:19.948Z,76.03
2019-03-23T02:18:52.013Z,76.78
2019-03-23T02:21:24.039Z,77.83
2019-03-23T02:23:55.989Z,76.98
2019-03-23T02:26:27.886Z,77.10
2019-03-23T02:28:59.900Z,78.86
2019-03-23T02:31:31.861Z,79.10
2019-03-23T02:34:04.263Z,79.93
2019-03-23T02:36:36.233Z,80.12
2019-03-23T02:39:09.283Z,80.53
2019-03-23T02:41:41.397Z,80.44
2019-03-23T02:44:14.387Z,79.57
2019-03-23T02:46:46.719Z,79.79
2019-03-23T02:49:18.923Z,80.16
2019-03-23T02:51:50.996Z,80.27
2019-03-23T02:54:23.582Z,81.05
2019-03-23T02:56:55.735Z,81.53
2019-03-23T02:59:27.925Z,81.47
2019-03-23T03:02:00.076Z,81.02
2019-03-23T03:04:32.323Z,81.34
2019-03-23T03:07:04.195Z,82.42
2019-03-23T03:09:36.142Z,81.19
2019-03-23T03:12:08.152Z,81.13
2019-03-23T03:14:40.885Z,81.14
2019-03-23T03:17:13.023Z,81.20
2019-03-23T03:19:45.702Z,80.55
2019-03-23T03:22:18.281Z,79.58
2019-03-23T03:24:50.463Z,79.35
2019-03-23T03:27:22.457Z,79.57
2019-03-23T03:29:54.431Z,81.18
2019-03-23T03:32:26.455Z,81.98
2019-03-23T03:34:58.398Z,80.88
2019-03-23T03:37:30.679Z,80.35
2019-03-23T03:40:02.832Z,80.18
2019-03-23T03:42:35.085Z,80.48
2019-03-23T03:45:07.464Z,80.71
2019-03-23T03:47:41.268Z,81.21
2019-03-23T03:50:13.172Z,81.66
2019-03-23T03:52:46.068Z,81.89
2019-03-23T03:55:18.243Z,82.22
2019-03-23T03:57:50.775Z,82.80
2019-03-23T04:00:23.468Z,83.32
2019-03-23T04:02:55.660Z,84.22
2019-03-23T04:05:27.756Z,84.52
2019-03-23T04:08:11.212Z,84.30
2019-03-23T04:10:34.744Z,84.40
2019-03-23T04:13:06.896Z,83.82
2019-03-23T04:15:39.369Z,83.50
2019-03-23T04:18:11.738Z,83.38
2019-03-23T04:20:44.491Z,82.86
2019-03-23T04:23:16.662Z,82.58
2019-03-23T04:25:48.694Z,82.76
2019-03-23T04:28:20.949Z,82.92
2019-03-23T04:30:53.102Z,83.29
2019-03-23T04:33:25.259Z,83.88
2019-03-23T04:35:57.431Z,84.04
2019-03-23T04:38:30.753Z,84.62
2019-03-23T04:41:02.789Z,84.17
2019-03-23T04:43:35.070Z,84.86
2019-03-23T04:46:07.233Z,86.03
2019-03-23T04:48:39.782Z,86.12
2019-03-23T04:51:12.252Z,86.44
2019-03-23T04:53:44.281Z,85.78
2019-03-23T04:56:16.340Z,85.25
2019-03-23T04:58:48.522Z,84.98
2019-03-23T05:01:20.704Z,85.26
2019-03-23T05:03:53.081Z,85.01
2019-03-23T05:06:25.276Z,85.28
2019-03-23T05:08:57.669Z,85.84
2019-03-23T05:11:29.905Z,86.45
2019-03-23T05:14:02.032Z,86.38
2019-03-23T05:16:34.139Z,86.55
2019-03-23T05:19:06.196Z,86.53
2019-03-23T05:21:38.388Z,85.71
2019-03-23T05:24:10.604Z,85.17
2019-03-23T05:26:42.557Z,84.81
2019-03-23T05:29:14.798Z,84.63
2019-03-23T05:31:47.049Z,84.46
2019-03-23T05:34:19.374Z,84.92
2019-03-23T05:36:52.018Z,84.00
2019-03-23T05:39:24.140Z,84.69
2019-03-23T05:41:56.568Z,83.73
2019-03-23T05:44:28.739Z,82.62
2019-03-23T05:47:00.916Z,83.17
2019-03-23T05:49:33.033Z,83.63
2019-03-23T05:52:05.177Z,82.48
2019-03-23T05:54:37.266Z,81.89
2019-03-23T05:57:09.577Z,82.60
2019-03-23T05:59:41.650Z,82.91
2019-03-23T06:02:14.103Z,83.99
2019-03-23T06:04:46.870Z,84.01
2019-03-23T06:07:18.871Z,83.75
2019-03-23T06:09:51.059Z,84.23
2019-03-23T06:12:24.266Z,83.14
2019-03-23T06:14:56.361Z,82.88
2019-03-23T06:17:28.505Z,83.54
2019-03-23T06:20:00.901Z,83.94
2019-03-23T06:22:33.113Z,84.84
2019-03-23T06:25:06.449Z,84.37
2019-03-23T06:27:38.584Z,84.46
2019-03-23T06:30:11.246Z,84.57
2019-03-23T06:32:43.479Z,84.03
2019-03-23T06:35:15.581Z,83.84
2019-03-23T06:37:47.653Z,84.49
2019-03-23T06:40:19.815Z,85.34
2019-03-23T06:42:59.632Z,85.49
2019-03-23T06:45:25.841Z,85.58
2019-03-23T06:47:57.971Z,84.90
2019-03-23T06:50:30.138Z,84.40
2019-03-23T06:53:02.165Z,83.79
2019-03-23T06:55:34.510Z,82.86
2019-03-23T06:58:06.540Z,82.24
2019-03-23T07:00:38.448Z,82.02
2019-03-23T07:03:10.558Z,81.90
2019-03-23T07:05:42.835Z,83.16
2019-03-23T07:08:14.697Z,83.99
2019-03-23T07:10:46.692Z,83.07
2019-03-23T07:13:18.852Z,82.62
2019-03-23T07:15:51.296Z,81.05
2019-03-23T07:18:23.835Z,78.59
2019-03-23T07:20:55.889Z,78.08
2019-03-23T07:23:27.890Z,78.03
2019-03-23T07:26:00.045Z,77.26
2019-03-23T07:28:32.280Z,75.35
2019-03-23T07:31:04.719Z,75.13
2019-03-23T07:33:37.165Z,73.46
2019-03-23T07:36:09.560Z,72.97
2019-03-23T07:38:42.477Z,73.04
2019-03-23T07:41:14.589Z,72.20
2019-03-23T07:43:46.679Z,73.64
2019-03-23T07:46:19.056Z,74.06
2019-03-23T07:48:50.906Z,72.03
2019-03-23T07:51:23.246Z,71.95
2019-03-23T07:53:55.284Z,71.90
2019-03-23T07:56:27.303Z,71.50
2019-03-23T07:58:59.749Z,66.48
2019-03-23T08:01:31.760Z,63.89
2019-03-23T08:04:03.807Z,61.70
2019-03-23T08:06:35.728Z,59.72
2019-03-23T08:09:08.163Z,59.43
2019-03-23T08:11:40.319Z,56.22
2019-03-23T08:14:12.435Z,56.87
2019-03-23T08:16:44.848Z,55.24
2019-03-23T08:19:17.118Z,55.98
2019-03-23T08:21:49.316Z,56.26
2019-03-23T08:24:21.378Z,54.81
2019-03-23T08:26:53.875Z,56.75
2019-03-23T08:29:25.957Z,56.24
2019-03-23T08:31:58.220Z,55.25
2019-03-23T08:34:30.442Z,52.35
2019-03-23T08:37:02.621Z,57.39
2019-03-23T08:39:35.152Z,56.71
2019-03-23T08:42:07.201Z,53.52
2019-03-23T08:44:39.344Z,53.52
2019-03-23T08:47:11.544Z,54.57
2019-03-23T08:49:43.837Z,54.05
2019-03-23T08:52:15.996Z,56.23
2019-03-23T08:54:48.156Z,57.06
2019-03-23T08:57:20.171Z,57.06
2019-03-23T08:59:52.355Z,56.67
2019-03-23T09:02:24.560Z,54.81
2019-03-23T09:04:57.020Z,55.82
2019-03-23T09:07:29.873Z,55.73
2019-03-23T09:10:02.036Z,53.79
2019-03-23T09:12:34.293Z,55.10
2019-03-23T09:15:07.135Z,57.12
2019-03-23T09:17:39.156Z,57.07
2019-03-23T09:20:12.691Z,54.79
2019-03-23T09:22:45.536Z,56.18
2019-03-23T09:25:17.886Z,57.74
2019-03-23T09:27:49.952Z,58.24
2019-03-23T09:30:22.174Z,58.12
2019-03-23T09:32:54.181Z,55.87
2019-03-23T09:35:26.972Z,56.18
2019-03-23T09:37:59.117Z,53.99
2019-03-23T09:40:31.065Z,56.77
2019-03-23T09:43:03.165Z,54.55
2019-03-23T09:45:35.183Z,55.08
2019-03-23T09:48:07.236Z,55.26
2019-03-23T09:50:39.216Z,57.21
2019-03-23T09:53:11.268Z,54.99
2019-03-23T09:55:43.263Z,57.01
2019-03-23T09:58:15.377Z,56.26
2019-03-23T10:00:47.801Z,55.31
2019-03-23T10:03:20.139Z,54.88
2019-03-23T10:05:52.444Z,54.33
2019-03-23T10:08:24.892Z,54.21
2019-03-23T10:10:56.921Z,54.73
2019-03-23T10:13:29.964Z,54.23
2019-03-23T10:16:02.120Z,54.67
2019-03-23T10:18:34.083Z,54.56
2019-03-23T10:21:06.412Z,53.10
2019-03-23T10:23:38.479Z,53.14
2019-03-23T10:26:10.719Z,52.61
2019-03-23T10:28:42.957Z,51.71
2019-03-23T10:31:15.063Z,49.90
2019-03-23T10:33:47.064Z,51.62
2019-03-23T10:36:19.193Z,52.92
2019-03-23T10:38:51.252Z,50.89
2019-03-23T10:41:23.558Z,51.00
2019-03-23T10:43:55.509Z,51.96
2019-03-23T10:46:27.911Z,50.88
2019-03-23T10:49:00.097Z,49.09
2019-03-23T10:51:32.134Z,49.38
2019-03-23T10:54:04.456Z,49.36
2019-03-23T10:56:36.427Z,49.04
2019-03-23T10:59:09.156Z,47.38
2019-03-23T11:01:41.383Z,47.97
2019-03-23T11:04:13.417Z,47.67
2019-03-23T11:06:45.540Z,48.11
2019-03-23T11:09:17.483Z,47.29
2019-03-23T11:11:49.875Z,47.53
2019-03-23T11:14:21.831Z,45.75
2019-03-23T11:16:54.039Z,48.45
2019-03-23T11:19:26.226Z,46.78
2019-03-23T11:21:58.452Z,46.51
2019-03-23T11:24:31.596Z,45.30
2019-03-23T11:27:03.832Z,45.35
2019-03-23T11:29:35.892Z,45.79
2019-03-23T11:32:08.204Z,45.47
2019-03-23T11:34:40.207Z,46.36
2019-03-23T11:37:12.483Z,45.44
2019-03-23T11:39:44.654Z,46.39
2019-03-23T11:42:17.623Z,45.83
2019-03-23T11:44:49.974Z,45.14
2019-03-23T11:47:22.042Z,45.12
2019-03-23T11:49:54.302Z,45.26
2019-03-23T11:52:26.284Z,43.86
2019-03-23T11:54:58.809Z,43.40
2019-03-23T11:57:30.829Z,42.94
2019-03-23T12:00:02.750Z,43.81
2019-03-23T12:02:36.388Z,43.59
2019-03-23T12:05:10.997Z,43.72
2019-03-23T12:07:43.136Z,43.98
2019-03-23T12:10:15.602Z,42.27
2019-03-23T12:12:47.927Z,42.69
2019-03-23T12:15:20.186Z,42.42
2019-03-23T12:17:52.433Z,43.75
2019-03-23T12:20:24.394Z,41.52
2019-03-23T12:22:56.577Z,40.74
2019-03-23T12:25:28.891Z,40.60
2019-03-23T12:28:00.902Z,40.98
2019-03-23T12:30:33.363Z,41.55
2019-03-23T12:33:05.853Z,41.52
2019-03-23T12:35:37.947Z,41.21
2019-03-23T12:38:10.180Z,39.94
2019-03-23T12:40:42.467Z,39.50
2019-03-23T12:43:14.610Z,40.07
2019-03-23T12:45:46.919Z,40.33
2019-03-23T12:48:19.336Z,40.02
2019-03-23T12:50:51.622Z,39.58
2019-03-23T12:53:23.581Z,40.83
2019-03-23T12:55:55.677Z,40.92
2019-03-23T12:58:27.709Z,40.16
2019-03-23T13:00:59.948Z,38.63
2019-03-23T13:03:31.963Z,37.81
2019-03-23T13:06:04.395Z,38.28
2019-03-23T13:08:37.551Z,37.64
2019-03-23T13:11:09.534Z,36.96
2019-03-23T13:13:41.736Z,38.12
2019-03-23T13:16:13.850Z,37.92
2019-03-23T13:18:45.741Z,38.59
2019-03-23T13:21:19.524Z,35.69
2019-03-23T13:23:51.787Z,35.41
2019-03-23T13:26:24.084Z,36.04
2019-03-23T13:28:56.524Z,36.63
2019-03-23T13:31:28.855Z,37.69
2019-03-23T13:34:00.857Z,36.54
2019-03-23T13:36:32.969Z,37.38
2019-03-23T13:39:07.080Z,35.46
2019-03-23T13:41:46.314Z,35.09
2019-03-23T13:44:18.559Z,35.37
2019-03-23T13:46:51.036Z,35.59
2019-03-23T13:49:23.285Z,35.94
2019-03-23T13:51:55.520Z,35.58
2019-03-23T13:54:27.945Z,35.85
2019-03-23T13:57:00.240Z,36.13
2019-03-23T13:59:32.526Z,37.05
2019-03-23T14:02:04.660Z,37.14
2019-03-23T14:04:36.851Z,38.24
2019-03-23T14:07:09.006Z,39.00
2019-03-23T14:09:41.126Z,38.69
2019-03-23T14:12:13.387Z,39.66
2019-03-23T14:14:45.619Z,40.42
2019-03-23T14:17:17.757Z,41.87
2019-03-23T14:19:50.010Z,41.92
2019-03-23T14:22:21.971Z,42.33
2019-03-23T14:24:56.110Z,42.14
2019-03-23T14:27:28.667Z,43.40
2019-03-23T14:30:00.761Z,43.93
2019-03-23T14:32:33.288Z,43.71
2019-03-23T14:35:05.319Z,43.27
2019-03-23T14:37:37.471Z,43.14
2019-03-23T14:40:09.661Z,44.41
2019-03-23T14:42:41.983Z,43.91
2019-03-23T14:45:14.336Z,44.45
2019-03-23T14:47:47.430Z,43.91
2019-03-23T14:50:20.025Z,44.08
2019-03-23T14:52:52.555Z,43.78
2019-03-23T14:55:25.077Z,44.16
2019-03-23T14:57:57.180Z,43.37
2019-03-23T15:00:34.861Z,42.98
2019-03-23T15:03:07.173Z,43.97
2019-03-23T15:05:39.188Z,43.90
2019-03-23T15:08:11.145Z,43.50
2019-03-23T15:10:43.150Z,43.24
2019-03-23T15:13:15.444Z,43.27
2019-03-23T15:15:48.523Z,44.12
2019-03-23T15:18:20.421Z,43.40
2019-03-23T15:20:53.088Z,43.80
2019-03-23T15:23:25.156Z,44.69
2019-03-23T15:25:57.078Z,44.74
2019-03-23T15:28:29.092Z,45.35
2019-03-23T15:31:01.272Z,45.24
2019-03-23T15:33:33.120Z,45.46
2019-03-23T15:36:05.084Z,45.92
2019-03-23T15:38:37.577Z,45.77
2019-03-23T15:41:09.720Z,46.50
2019-03-23T15:43:41.809Z,46.07
2019-03-23T15:46:14.047Z,46.38
2019-03-23T15:48:46.022Z,46.29
2019-03-23T15:51:18.321Z,46.66
2019-03-23T15:53:50.299Z,46.37
2019-03-23T15:56:22.178Z,46.73
2019-03-23T15:58:54.781Z,46.55
2019-03-23T16:01:26.705Z,47.10
2019-03-23T16:03:58.661Z,46.52
2019-03-23T16:06:30.745Z,46.81
2019-03-23T16:09:04.625Z,46.41
2019-03-23T16:11:36.905Z,46.82
2019-03-23T16:14:08.999Z,46.99
2019-03-23T16:16:40.964Z,47.40
2019-03-23T16:19:13.223Z,47.65
2019-03-23T16:21:45.164Z,47.39
2019-03-23T16:24:17.547Z,48.07
2019-03-23T16:26:49.840Z,47.97
2019-03-23T16:29:22.759Z,47.64
2019-03-23T16:31:55.006Z,48.11
2019-03-23T16:34:26.989Z,48.59
2019-03-23T16:36:59.480Z,49.50
2019-03-23T16:39:33.511Z,53.16
2019-03-23T16:42:05.913Z,55.73
2019-03-23T16:44:37.922Z,57.20
2019-03-23T16:47:10.232Z,58.24
2019-03-23T16:49:42.234Z,58.95
2019-03-23T16:52:14.684Z,59.90
2019-03-23T16:54:46.962Z,59.86
2019-03-23T16:57:18.952Z,61.04
2019-03-23T16:59:51.621Z,60.69
2019-03-23T17:02:23.723Z,62.18
2019-03-23T17:04:55.914Z,61.94
2019-03-23T17:07:28.016Z,60.74
2019-03-23T17:10:00.069Z,61.22
2019-03-23T17:12:32.308Z,63.08
2019-03-23T17:15:05.169Z,62.66
2019-03-23T17:17:37.696Z,62.08
2019-03-23T17:20:10.777Z,61.02
2019-03-23T17:22:42.744Z,60.51
2019-03-23T17:25:14.993Z,60.04
2019-03-23T17:27:47.436Z,59.68
2019-03-23T17:30:19.968Z,60.79
2019-03-23T17:32:52.005Z,60.89
2019-03-23T17:35:24.277Z,60.80
2019-03-23T17:37:56.520Z,61.25
2019-03-23T17:40:28.911Z,62.40
2019-03-23T17:43:05.806Z,61.13
2019-03-23T17:45:34.811Z,61.56
2019-03-23T17:48:06.882Z,60.38
2019-03-23T17:50:39.511Z,58.13
2019-03-23T17:53:11.741Z,58.91
2019-03-23T17:55:43.755Z,58.33
2019-03-23T17:58:16.223Z,57.70
2019-03-23T18:00:48.571Z,57.44
2019-03-23T18:03:20.798Z,56.95
2019-03-23T18:05:53.260Z,57.35
2019-03-23T18:08:25.594Z,57.39
2019-03-23T18:10:58.221Z,58.78
2019-03-23T18:13:30.331Z,58.66
2019-03-23T18:16:02.946Z,59.04
2019-03-23T18:18:35.483Z,58.60
2019-03-23T18:21:07.462Z,58.42
2019-03-23T18:23:39.811Z,58.78
2019-03-23T18:26:13.331Z,59.27
2019-03-23T18:28:45.574Z,59.22
2019-03-23T18:31:17.914Z,58.93
2019-03-23T18:33:50.317Z,59.92
2019-03-23T18:36:23.145Z,58.86
2019-03-23T18:38:55.182Z,60.48
2019-03-23T18:41:27.104Z,59.50
2019-03-23T18:43:58.020Z,60.08
2019-03-23T18:46:30.234Z,59.18
2019-03-23T18:49:02.314Z,58.89
2019-03-23T18:51:34.500Z,58.92
2019-03-23T18:54:06.936Z,58.61
2019-03-23T18:56:39.295Z,59.20
2019-03-23T18:59:12.337Z,58.18
2019-03-23T19:01:44.505Z,59.32
2019-03-23T19:04:16.556Z,59.37
2019-03-23T19:06:48.673Z,59.97
2019-03-23T19:09:20.968Z,60.20
2019-03-23T19:11:52.933Z,60.51
2019-03-23T19:14:25.144Z,60.91
2019-03-23T19:16:56.940Z,62.19
2019-03-23T19:19:28.880Z,61.36
2019-03-23T19:22:01.099Z,61.88
2019-03-23T19:24:32.997Z,62.27
2019-03-23T19:27:05.467Z,61.63
2019-03-23T19:29:37.485Z,62.19
2019-03-23T19:32:09.852Z,62.70
2019-03-23T19:34:44.357Z,61.65
2019-03-23T19:37:16.425Z,62.86
2019-03-23T19:39:48.615Z,61.59
2019-03-23T19:42:20.891Z,60.87
2019-03-23T19:44:53.453Z,61.03
2019-03-23T19:47:25.601Z,61.17
2019-03-23T19:49:57.767Z,59.62
2019-03-23T19:52:29.927Z,60.24
2019-03-23T19:55:02.454Z,62.64
2019-03-23T19:57:34.557Z,63.06
2019-03-23T20:00:07.629Z,63.57
2019-03-23T20:02:39.581Z,62.27
2019-03-23T20:05:12.701Z,62.06
2019-03-23T20:07:45.037Z,63.18
2019-03-23T20:10:18.005Z,63.05
2019-03-23T20:12:50.098Z,62.83
2019-03-23T20:15:22.373Z,62.97
2019-03-23T20:17:54.744Z,62.28
2019-03-23T20:20:26.764Z,64.01
2019-03-23T20:23:00.548Z,63.93
2019-03-23T20:25:32.764Z,64.08
2019-03-23T20:28:05.237Z,63.53
2019-03-23T20:30:37.551Z,63.19
2019-03-23T20:33:19.057Z,63.01
2019-03-23T20:35:43.652Z,64.18
2019-03-23T20:38:15.904Z,63.35
2019-03-23T20:40:48.039Z,63.13
2019-03-23T20:43:20.114Z,63.66
2019-03-23T20:45:52.494Z,63.52
2019-03-23T20:48:24.462Z,63.08
2019-03-23T20:50:56.564Z,63.15
2019-03-23T20:53:29.063Z,63.88
2019-03-23T20:56:01.318Z,63.70
2019-03-23T20:58:33.572Z,63.42
2019-03-23T21:01:06.334Z,62.97
2019-03-23T21:03:38.966Z,62.53
2019-03-23T21:06:12.625Z,62.36
2019-03-23T21:08:44.973Z,63.15
2019-03-23T21:11:17.289Z,62.27
2019-03-23T21:13:49.331Z,62.32
2019-03-23T21:16:21.214Z,62.38
2019-03-23T21:18:53.623Z,62.09
2019-03-23T21:21:25.676Z,62.81
2019-03-23T21:23:58.103Z,63.31
2019-03-23T21:26:30.303Z,62.37
2019-03-23T21:29:02.444Z,62.07
2019-03-23T21:31:34.463Z,62.77
2019-03-23T21:34:06.538Z,62.84
2019-03-23T21:36:38.786Z,61.82
2019-03-23T21:39:11.249Z,62.14
2019-03-23T21:41:43.979Z,61.58
2019-03-23T21:44:16.155Z,61.78
2019-03-23T21:46:48.387Z,62.17
2019-03-23T21:49:20.419Z,62.33
2019-03-23T21:51:52.761Z,62.44
2019-03-23T21:54:25.041Z,62.75
2019-03-23T21:56:57.248Z,63.23
2019-03-23T21:59:29.573Z,63.43
2019-03-23T22:02:01.981Z,63.80
2019-03-23T22:04:34.107Z,63.98
2019-03-23T22:07:06.468Z,63.57
2019-03-23T22:09:39.904Z,64.14
2019-03-23T22:12:12.180Z,64.79
2019-03-23T22:14:45.486Z,65.37
2019-03-23T22:17:17.660Z,65.17
2019-03-23T22:19:50.648Z,64.78
2019-03-23T22:22:23.917Z,64.30
2019-03-23T22:24:56.163Z,64.83
2019-03-23T22:27:28.364Z,64.77
2019-03-23T22:30:00.580Z,64.82
2019-03-23T22:32:33.881Z,64.65
2019-03-23T22:35:07.551Z,65.09
2019-03-23T22:37:39.710Z,64.84
2019-03-23T22:40:12.650Z,65.87
2019-03-23T22:42:44.794Z,65.49
2019-03-23T22:45:17.006Z,66.21
2019-03-23T22:47:49.025Z,66.40
2019-03-23T22:50:21.173Z,66.84
2019-03-23T22:52:53.319Z,66.68
2019-03-23T22:55:25.297Z,67.37
2019-03-23T22:57:57.959Z,67.37
2019-03-23T23:00:47.627Z,67.12
2019-03-23T23:03:19.972Z,66.96
2019-03-23T23:05:52.126Z,66.07
2019-03-23T23:08:24.363Z,66.45
2019-03-23T23:10:57.332Z,67.30
2019-03-23T23:13:29.787Z,67.14
2019-03-23T23:16:02.013Z,67.54
2019-03-23T23:18:34.110Z,67.50
2019-03-23T23:21:06.427Z,69.66
2019-03-23T23:23:39.010Z,68.73
2019-03-23T23:26:11.177Z,68.29
2019-03-23T23:28:43.746Z,67.50
2019-03-23T23:31:15.653Z,67.95
2019-03-23T23:33:48.300Z,67.56
2019-03-23T23:36:20.475Z,68.58
2019-03-23T23:38:52.908Z,69.25
2019-03-23T23:41:25.159Z,69.44
2019-03-23T23:43:58.298Z,69.22
2019-03-23T23:46:30.573Z,69.34
2019-03-23T23:49:02.776Z,69.75
2019-03-23T23:51:34.756Z,70.03
2019-03-23T23:54:06.903Z,70.16
2019-03-23T23:56:39.466Z,70.07
2019-03-23T23:59:11.882Z,69.67
